createdAt,value
2018-03-17T00:00:48.775Z,19.20
2018-03-17T00:03:16.285Z,19.90
2018-03-17T00:05:43.772Z,18.93
2018-03-17T00:08:11.280Z,18.13
2018-03-17T00:10:38.764Z,18.43
2018-03-17T00:13:06.244Z,17.70
2018-03-17T00:15:33.761Z,17.70
2018-03-17T00:18:01.248Z,17.43
2018-03-17T00:20:28.764Z,17.20
2018-03-17T00:22:56.252Z,16.80
2018-03-17T00:25:23.764Z,16.83
2018-03-17T00:27:51.262Z,17.50
2018-03-17T00:30:18.768Z,16.00
2018-03-17T00:32:46.257Z,15.80
2018-03-17T00:35:15.540Z,15.90
2018-03-17T00:37:43.026Z,15.70
2018-03-17T00:40:11.350Z,17.70
2018-03-17T00:42:38.839Z,16.97
2018-03-17T00:45:06.344Z,16.63
2018-03-17T00:47:33.836Z,18.03
2018-03-17T00:50:02.116Z,18.20
2018-03-17T00:52:30.379Z,17.83
2018-03-17T00:54:57.889Z,18.37
2018-03-17T00:57:26.199Z,17.73
2018-03-17T00:59:53.656Z,18.93
2018-03-17T01:02:21.904Z,17.10
2018-03-17T01:04:49.412Z,18.10
2018-03-17T01:07:17.675Z,17.27
2018-03-17T01:09:45.155Z,17.97
2018-03-17T01:12:12.653Z,18.17
2018-03-17T01:14:40.136Z,16.73
2018-03-17T01:17:07.644Z,18.33
2018-03-17T01:19:35.130Z,18.43
2018-03-17T01:22:02.644Z,18.00
2018-03-17T01:24:30.129Z,17.93
2018-03-17T01:26:57.640Z,17.40
2018-03-17T01:29:25.128Z,17.17
2018-03-17T01:31:53.401Z,16.27
2018-03-17T01:34:20.884Z,16.83
2018-03-17T01:36:49.148Z,17.30
2018-03-17T01:39:16.641Z,19.70
2018-03-17T01:41:44.915Z,16.70
2018-03-17T01:44:12.400Z,18.00
2018-03-17T01:46:40.659Z,17.50
2018-03-17T01:49:08.144Z,18.93
2018-03-17T01:51:35.644Z,18.70
2018-03-17T01:54:14.875Z,18.73
2018-03-17T01:56:43.144Z,18.17
2018-03-17T01:59:10.624Z,18.20
2018-03-17T02:01:38.901Z,17.50
2018-03-17T02:04:06.382Z,18.07
2018-03-17T02:06:33.871Z,19.50
2018-03-17T02:09:02.143Z,18.00
2018-03-17T02:11:30.388Z,20.43
2018-03-17T02:13:58.501Z,19.97
2018-03-17T02:16:25.988Z,19.80
2018-03-17T02:18:54.253Z,20.10
2018-03-17T02:21:21.743Z,20.63
2018-03-17T02:23:50.012Z,19.53
2018-03-17T02:26:17.510Z,20.03
2018-03-17T02:28:45.792Z,19.87
2018-03-17T02:31:14.054Z,21.50
2018-03-17T02:33:41.565Z,19.97
2018-03-17T02:36:09.052Z,20.23
2018-03-17T02:38:36.573Z,19.13
2018-03-17T02:41:04.060Z,18.90
2018-03-17T02:43:32.308Z,19.17
2018-03-17T02:45:59.817Z,18.57
2018-03-17T02:48:28.078Z,21.20
2018-03-17T02:50:55.591Z,19.87
2018-03-17T02:53:23.084Z,18.40
2018-03-17T02:55:50.584Z,19.20
2018-03-17T02:58:18.064Z,18.73
2018-03-17T03:00:45.568Z,18.53
2018-03-17T03:03:13.824Z,19.20
2018-03-17T03:05:41.325Z,17.63
2018-03-17T03:08:09.576Z,19.40
2018-03-17T03:10:37.072Z,17.80
2018-03-17T03:13:04.556Z,17.77
2018-03-17T03:15:32.836Z,17.20
2018-03-17T03:18:01.119Z,17.80
2018-03-17T03:20:29.378Z,18.90
2018-03-17T03:22:56.898Z,18.13
2018-03-17T03:25:24.394Z,17.17
2018-03-17T03:27:51.910Z,15.77
2018-03-17T03:30:19.393Z,15.70
2018-03-17T03:32:47.677Z,17.80
2018-03-17T03:35:15.940Z,17.53
2018-03-17T03:37:43.443Z,17.80
2018-03-17T03:40:11.688Z,18.00
2018-03-17T03:42:39.198Z,18.00
2018-03-17T03:45:07.461Z,18.03
2018-03-17T03:47:34.973Z,18.60
2018-03-17T03:50:02.469Z,18.20
2018-03-17T03:52:30.056Z,20.00
2018-03-17T03:54:57.560Z,19.03
2018-03-17T03:57:25.044Z,19.87
2018-03-17T03:59:53.312Z,20.23
2018-03-17T04:02:29.007Z,19.40
2018-03-17T04:04:56.512Z,20.07
2018-03-17T04:07:23.997Z,19.43
2018-03-17T04:09:51.508Z,19.73
2018-03-17T04:12:19.761Z,21.27
2018-03-17T04:14:47.280Z,20.10
2018-03-17T04:17:14.773Z,19.80
2018-03-17T04:19:42.284Z,18.60
2018-03-17T04:22:09.783Z,20.07
2018-03-17T04:24:37.292Z,18.70
2018-03-17T04:27:04.776Z,20.20
2018-03-17T04:29:32.284Z,18.97
2018-03-17T04:32:00.539Z,18.50
2018-03-17T04:34:28.053Z,18.30
2018-03-17T04:36:55.539Z,18.30
2018-03-17T04:39:23.043Z,18.83
2018-03-17T04:41:50.537Z,18.40
2018-03-17T04:44:18.081Z,17.03
2018-03-17T04:46:45.572Z,18.03
2018-03-17T04:49:13.059Z,18.67
2018-03-17T04:51:41.328Z,17.23
2018-03-17T04:54:08.822Z,17.57
2018-03-17T04:56:37.092Z,16.93
2018-03-17T04:59:04.593Z,15.67
2018-03-17T05:01:32.113Z,16.47
2018-03-17T05:03:59.600Z,16.07
2018-03-17T05:06:27.169Z,16.73
2018-03-17T05:08:54.619Z,15.97
2018-03-17T05:11:22.134Z,16.13
2018-03-17T05:13:50.399Z,15.87
2018-03-17T05:16:17.907Z,15.47
2018-03-17T05:18:45.406Z,15.57
2018-03-17T05:21:12.906Z,14.53
2018-03-17T05:23:40.399Z,14.67
2018-03-17T05:26:08.698Z,15.17
2018-03-17T05:28:36.954Z,15.07
2018-03-17T05:31:04.435Z,16.90
2018-03-17T05:33:32.720Z,15.30
2018-03-17T05:36:00.214Z,14.47
2018-03-17T05:38:28.498Z,17.23
2018-03-17T05:40:55.992Z,15.03
2018-03-17T05:43:23.497Z,15.73
2018-03-17T05:45:50.992Z,17.20
2018-03-17T05:48:19.452Z,14.77
2018-03-17T05:50:46.952Z,16.77
2018-03-17T05:53:14.465Z,16.57
2018-03-17T05:55:41.948Z,17.03
2018-03-17T05:58:09.456Z,16.10
2018-03-17T06:00:36.954Z,16.13
2018-03-17T06:03:05.237Z,15.20
2018-03-17T06:05:33.493Z,16.00
2018-03-17T06:08:01.009Z,16.30
2018-03-17T06:10:28.496Z,16.60
2018-03-17T06:12:56.768Z,15.50
2018-03-17T06:15:24.262Z,15.80
2018-03-17T06:17:51.739Z,15.40
2018-03-17T06:20:19.242Z,15.90
2018-03-17T06:22:46.729Z,15.63
2018-03-17T06:25:14.237Z,16.70
2018-03-17T06:30:38.292Z,16.60
2018-03-17T06:33:05.787Z,17.40
2018-03-17T06:35:33.301Z,18.00
2018-03-17T06:38:00.785Z,16.50
2018-03-17T06:40:28.291Z,16.30
2018-03-17T06:42:55.783Z,17.40
2018-03-17T06:45:24.049Z,17.50
2018-03-17T06:47:51.538Z,17.20
2018-03-17T06:50:19.051Z,16.63
2018-03-17T06:52:46.650Z,17.10
2018-03-17T06:55:14.180Z,16.63
2018-03-17T06:57:41.672Z,16.30
2018-03-17T07:00:09.407Z,17.23
2018-03-17T07:02:37.668Z,16.90
2018-03-17T07:05:05.152Z,17.93
2018-03-17T07:07:33.430Z,15.57
2018-03-17T07:10:01.010Z,17.00
2018-03-17T07:12:29.292Z,17.90
2018-03-17T07:14:56.781Z,16.17
2018-03-17T07:17:25.065Z,16.50
2018-03-17T07:19:53.315Z,17.40
2018-03-17T07:22:20.813Z,15.40
2018-03-17T07:24:52.984Z,14.30
2018-03-17T07:27:20.514Z,15.60
2018-03-17T07:29:48.012Z,15.83
2018-03-17T07:32:15.516Z,15.90
2018-03-17T07:34:43.777Z,15.80
2018-03-17T07:37:11.650Z,15.23
2018-03-17T07:39:39.149Z,14.60
2018-03-17T07:42:07.437Z,15.20
2018-03-17T07:44:35.688Z,14.30
2018-03-17T07:47:03.200Z,14.20
2018-03-17T07:49:31.452Z,14.10
2018-03-17T07:51:58.945Z,16.47
2018-03-17T07:54:26.452Z,14.77
2018-03-17T07:56:53.952Z,16.00
2018-03-17T07:59:21.494Z,14.10
2018-03-17T08:01:48.976Z,15.20
2018-03-17T08:04:16.490Z,14.90
2018-03-17T08:06:44.101Z,15.63
2018-03-17T08:09:11.625Z,15.00
2018-03-17T08:11:39.119Z,13.60
2018-03-17T08:14:07.401Z,15.30
2018-03-17T08:16:34.894Z,14.33
2018-03-17T08:19:02.491Z,13.97
2018-03-17T08:21:29.988Z,13.90
2018-03-17T08:23:57.468Z,14.57
2018-03-17T08:26:24.973Z,14.30
2018-03-17T08:28:53.238Z,14.30
2018-03-17T08:31:20.736Z,14.50
2018-03-17T08:33:48.234Z,14.57
2018-03-17T08:36:15.745Z,15.90
2018-03-17T08:38:43.224Z,14.40
2018-03-17T08:41:10.733Z,13.87
2018-03-17T08:43:38.235Z,17.63
2018-03-17T08:46:05.753Z,14.50
2018-03-17T08:48:34.009Z,14.90
2018-03-17T08:51:01.518Z,13.67
2018-03-17T08:53:29.015Z,13.80
2018-03-17T08:55:56.524Z,15.20
2018-03-17T08:58:24.026Z,14.13
2018-03-17T09:00:51.524Z,13.97
2018-03-17T09:03:19.017Z,13.93
2018-03-17T09:05:46.517Z,13.73
2018-03-17T09:08:14.021Z,14.20
2018-03-17T09:10:41.528Z,15.67
2018-03-17T09:13:09.031Z,18.13
2018-03-17T09:15:36.522Z,13.80
2018-03-17T09:18:04.035Z,13.07
2018-03-17T09:20:31.520Z,15.17
2018-03-17T09:22:59.020Z,14.27
2018-03-17T09:25:27.264Z,13.00
2018-03-17T09:27:54.775Z,14.80
2018-03-17T09:30:23.028Z,14.43
2018-03-17T09:32:50.540Z,14.80
2018-03-17T09:35:18.806Z,12.63
2018-03-17T09:37:46.308Z,13.33
2018-03-17T09:40:13.796Z,13.97
2018-03-17T09:42:41.314Z,13.70
2018-03-17T09:45:08.813Z,13.23
2018-03-17T09:47:37.088Z,12.50
2018-03-17T09:50:05.339Z,12.93
2018-03-17T09:52:32.820Z,13.23
2018-03-17T09:55:00.336Z,12.60
2018-03-17T09:57:27.829Z,13.77
2018-03-17T09:59:55.348Z,11.83
2018-03-17T10:02:22.847Z,12.43
2018-03-17T10:04:50.382Z,11.47
2018-03-17T10:07:17.876Z,12.57
2018-03-17T10:09:46.153Z,11.53
2018-03-17T10:12:14.409Z,12.23
2018-03-17T10:14:41.924Z,11.87
2018-03-17T10:17:10.182Z,11.83
2018-03-17T10:19:37.706Z,11.80
2018-03-17T10:22:05.200Z,12.43
2018-03-17T10:24:32.704Z,11.40
2018-03-17T10:27:00.214Z,11.20
2018-03-17T10:29:27.786Z,10.93
2018-03-17T10:31:55.238Z,11.07
2018-03-17T10:34:22.769Z,12.00
2018-03-17T10:36:50.254Z,11.43
2018-03-17T10:39:17.746Z,10.63
2018-03-17T10:41:45.249Z,11.40
2018-03-17T10:44:12.741Z,11.63
2018-03-17T10:46:40.244Z,12.03
2018-03-17T10:49:08.504Z,10.13
2018-03-17T10:51:36.005Z,11.33
2018-03-17T10:54:04.272Z,10.80
2018-03-17T10:56:31.798Z,10.77
2018-03-17T10:58:59.288Z,11.43
2018-03-17T11:01:26.796Z,10.77
2018-03-17T11:03:54.284Z,11.00
2018-03-17T11:06:22.565Z,10.00
2018-03-17T11:08:50.812Z,10.20
2018-03-17T11:11:18.334Z,10.80
2018-03-17T11:13:46.672Z,11.40
2018-03-17T11:16:14.191Z,10.63
2018-03-17T11:18:42.444Z,9.97
2018-03-17T11:21:09.938Z,11.57
2018-03-17T11:23:37.465Z,11.07
2018-03-17T11:26:04.954Z,9.43
2018-03-17T11:28:32.477Z,11.47
2018-03-17T11:30:59.976Z,10.33
2018-03-17T11:33:27.490Z,10.60
2018-03-17T11:35:55.741Z,10.27
2018-03-17T11:38:23.249Z,9.83
2018-03-17T11:40:51.509Z,10.83
2018-03-17T11:43:19.024Z,10.37
2018-03-17T11:45:47.291Z,10.77
2018-03-17T11:48:15.573Z,10.67
2018-03-17T11:50:43.060Z,10.03
2018-03-17T11:53:11.333Z,11.13
2018-03-17T11:55:38.826Z,10.40
2018-03-17T11:58:07.086Z,10.70
2018-03-17T12:00:34.592Z,10.73
2018-03-17T12:03:02.081Z,9.17
2018-03-17T12:05:29.589Z,10.40
2018-03-17T12:07:57.104Z,10.90
2018-03-17T12:10:24.622Z,10.43
2018-03-17T12:12:52.132Z,10.07
2018-03-17T12:15:20.400Z,10.27
2018-03-17T12:17:47.889Z,10.70
2018-03-17T12:20:16.169Z,10.37
2018-03-17T12:22:44.435Z,10.73
2018-03-17T12:25:11.937Z,9.87
2018-03-17T12:27:39.440Z,10.20
2018-03-17T12:30:06.937Z,10.97
2018-03-17T12:32:34.445Z,10.17
2018-03-17T12:35:01.948Z,10.00
2018-03-17T12:37:29.448Z,9.80
2018-03-17T12:39:56.938Z,10.73
2018-03-17T12:42:24.450Z,9.07
2018-03-17T12:44:51.940Z,8.83
2018-03-17T12:47:19.449Z,9.27
2018-03-17T12:49:46.945Z,10.07
2018-03-17T12:52:14.460Z,9.63
2018-03-17T12:54:41.940Z,8.97
2018-03-17T12:57:09.438Z,9.97
2018-03-17T12:59:36.945Z,9.40
2018-03-17T13:02:04.440Z,8.93
2018-03-17T13:04:31.962Z,9.57
2018-03-17T13:06:59.444Z,9.50
2018-03-17T13:09:26.961Z,8.70
2018-03-17T13:11:54.465Z,10.90
2018-03-17T13:14:22.751Z,9.87
2018-03-17T13:16:51.027Z,9.70
2018-03-17T13:19:31.205Z,10.07
2018-03-17T13:21:59.457Z,9.20
2018-03-17T13:24:26.975Z,8.97
2018-03-17T13:27:06.413Z,8.57
2018-03-17T13:29:34.698Z,9.60
2018-03-17T13:32:02.193Z,9.87
2018-03-17T13:34:30.463Z,9.57
2018-03-17T13:37:10.708Z,10.70
2018-03-17T13:39:38.255Z,9.83
2018-03-17T13:42:05.754Z,9.67
2018-03-17T13:44:33.281Z,10.00
2018-03-17T13:47:00.782Z,10.57
2018-03-17T13:49:28.296Z,8.50
2018-03-17T13:51:56.557Z,9.70
2018-03-17T13:54:24.045Z,9.53
2018-03-17T13:56:52.316Z,9.40
2018-03-17T13:59:19.814Z,10.03
2018-03-17T14:01:47.339Z,10.30
2018-03-17T14:04:14.827Z,9.43
2018-03-17T14:06:42.342Z,11.73
2018-03-17T14:09:09.832Z,11.37
2018-03-17T14:11:37.340Z,10.60
2018-03-17T14:14:04.827Z,10.67
2018-03-17T14:16:33.141Z,10.57
2018-03-17T14:19:00.646Z,10.63
2018-03-17T14:21:28.162Z,9.83
2018-03-17T14:23:56.455Z,10.03
2018-03-17T14:26:23.970Z,10.00
2018-03-17T14:28:51.470Z,11.60
2018-03-17T14:31:18.994Z,10.00
2018-03-17T14:33:46.488Z,11.20
2018-03-17T14:36:13.994Z,11.60
2018-03-17T14:38:42.281Z,10.87
2018-03-17T14:41:09.777Z,10.00
2018-03-17T14:43:37.303Z,11.30
2018-03-17T14:46:04.816Z,11.30
2018-03-17T14:48:32.342Z,11.03
2018-03-17T14:50:59.839Z,11.57
2018-03-17T14:53:28.131Z,11.10
2018-03-17T14:55:56.429Z,12.20
2018-03-17T14:58:24.713Z,10.80
2018-03-17T15:00:52.981Z,12.17
2018-03-17T15:03:20.487Z,9.30
2018-03-17T15:05:47.989Z,12.20
2018-03-17T15:08:15.496Z,11.17
2018-03-17T15:10:43.006Z,11.03
2018-03-17T15:13:10.517Z,10.20
2018-03-17T15:15:38.041Z,11.00
2018-03-17T15:18:05.536Z,11.17
2018-03-17T15:20:33.054Z,10.63
2018-03-17T15:23:00.554Z,11.70
2018-03-17T15:25:28.072Z,10.50
2018-03-17T15:27:55.564Z,10.13
2018-03-17T15:30:23.845Z,11.00
2018-03-17T15:32:52.116Z,11.17
2018-03-17T15:35:19.633Z,12.43
2018-03-17T15:37:47.126Z,10.60
2018-03-17T15:40:14.652Z,11.57
2018-03-17T15:42:42.921Z,11.70
2018-03-17T15:45:10.449Z,10.70
2018-03-17T15:47:37.953Z,10.77
2018-03-17T15:50:05.454Z,10.80
2018-03-17T15:52:33.736Z,11.20
2018-03-17T15:55:01.251Z,11.87
2018-03-17T15:57:28.777Z,12.37
2018-03-17T15:59:56.288Z,15.40
2018-03-17T16:02:23.789Z,11.43
2018-03-17T16:04:51.282Z,11.70
2018-03-17T16:07:18.797Z,10.90
2018-03-17T16:09:46.298Z,10.83
2018-03-17T16:12:13.812Z,10.67
2018-03-17T16:14:42.073Z,11.27
2018-03-17T16:17:09.593Z,12.10
2018-03-17T16:19:37.116Z,10.23
2018-03-17T16:22:04.646Z,10.93
2018-03-17T16:24:32.146Z,11.40
2018-03-17T16:26:59.655Z,11.93
2018-03-17T16:29:27.944Z,11.13
2018-03-17T16:31:56.211Z,11.03
2018-03-17T16:34:24.666Z,11.47
2018-03-17T16:42:43.317Z,11.07
2018-03-17T16:45:10.836Z,13.43
2018-03-17T16:47:38.339Z,11.63
2018-03-17T16:50:05.863Z,11.10
2018-03-17T16:52:36.070Z,11.83
2018-03-17T16:55:03.606Z,11.43
2018-03-17T16:57:31.106Z,12.67
2018-03-17T16:59:58.634Z,12.63
2018-03-17T17:02:26.135Z,11.97
2018-03-17T17:04:53.644Z,12.90
2018-03-17T17:07:21.905Z,12.67
2018-03-17T17:09:49.437Z,11.57
2018-03-17T17:12:16.932Z,12.40
2018-03-17T17:14:44.434Z,12.60
2018-03-17T17:17:11.969Z,11.17
2018-03-17T17:19:39.475Z,11.90
2018-03-17T17:22:07.008Z,11.37
2018-03-17T17:24:34.500Z,11.80
2018-03-17T17:27:02.028Z,11.30
2018-03-17T17:29:29.532Z,11.63
2018-03-17T17:31:57.040Z,11.20
2018-03-17T17:34:24.540Z,11.60
2018-03-17T17:36:52.069Z,10.63
2018-03-17T17:39:19.557Z,11.20
2018-03-17T17:41:47.845Z,10.63
2018-03-17T17:44:16.105Z,10.60
2018-03-17T17:46:43.629Z,12.70
2018-03-17T17:49:11.133Z,10.60
2018-03-17T17:51:38.658Z,11.10
2018-03-17T17:54:06.160Z,10.97
2018-03-17T17:56:33.688Z,11.00
2018-03-17T17:59:01.946Z,9.57
2018-03-17T18:01:29.492Z,11.57
2018-03-17T18:03:56.993Z,10.50
2018-03-17T18:06:24.496Z,10.63
2018-03-17T18:08:52.760Z,10.13
2018-03-17T18:11:20.259Z,10.80
2018-03-17T18:13:47.782Z,11.00
2018-03-17T18:16:15.281Z,10.97
2018-03-17T18:18:43.574Z,10.33
2018-03-17T18:21:11.844Z,10.10
2018-03-17T18:23:39.375Z,11.53
2018-03-17T18:26:06.868Z,9.77
2018-03-17T18:28:34.381Z,11.27
2018-03-17T18:31:02.642Z,10.90
2018-03-17T18:33:30.165Z,12.90
2018-03-17T18:35:57.658Z,11.77
2018-03-17T18:38:25.165Z,9.67
2018-03-17T18:40:52.656Z,10.33
2018-03-17T18:43:20.933Z,9.63
2018-03-17T18:45:49.202Z,10.37
2018-03-17T18:48:16.711Z,9.20
2018-03-17T18:50:44.212Z,10.83
2018-03-17T18:53:11.725Z,17.57
2018-03-17T19:01:25.597Z,10.50
2018-03-17T19:03:53.104Z,10.90
2018-03-17T19:06:20.603Z,10.57
2018-03-17T19:08:48.885Z,10.30
2018-03-17T19:11:17.137Z,9.53
2018-03-17T19:13:44.632Z,9.93
2018-03-17T19:16:12.148Z,9.93
2018-03-17T19:18:39.645Z,11.23
2018-03-17T19:21:07.157Z,10.30
2018-03-17T19:23:35.407Z,10.27
2018-03-17T19:26:02.934Z,10.73
2018-03-17T19:28:30.443Z,10.73
2018-03-17T19:30:57.961Z,9.30
2018-03-17T19:33:25.483Z,9.00
2018-03-17T19:35:52.985Z,10.90
2018-03-17T19:38:21.241Z,10.50
2018-03-17T19:40:48.773Z,11.43
2018-03-17T19:43:16.273Z,10.00
2018-03-17T19:45:43.797Z,10.77
2018-03-17T19:48:12.066Z,10.43
2018-03-17T19:50:39.584Z,9.40
2018-03-17T19:53:07.073Z,10.80
2018-03-17T19:55:34.595Z,10.90
2018-03-17T19:58:02.850Z,10.60
2018-03-17T20:00:30.343Z,9.60
2018-03-17T20:02:58.620Z,9.63
2018-03-17T20:05:26.109Z,10.40
2018-03-17T20:07:54.386Z,9.57
2018-03-17T20:10:21.881Z,9.70
2018-03-17T20:12:49.397Z,10.87
2018-03-17T20:15:16.907Z,11.40
2018-03-17T20:17:45.192Z,9.87
2018-03-17T20:20:13.460Z,9.20
2018-03-17T20:22:40.976Z,9.87
2018-03-17T20:25:08.473Z,11.13
2018-03-17T20:27:36.003Z,10.40
2018-03-17T20:30:04.275Z,11.30
2018-03-17T20:32:32.578Z,11.37
2018-03-17T20:35:00.076Z,10.50
2018-03-17T20:37:27.600Z,10.13
2018-03-17T20:39:55.108Z,11.40
2018-03-17T20:42:22.617Z,11.20
2018-03-17T20:44:50.114Z,12.20
2018-03-17T20:47:18.400Z,11.70
2018-03-17T20:49:45.892Z,10.03
2018-03-17T20:52:14.181Z,10.93
2018-03-17T20:54:42.453Z,10.63
2018-03-17T20:57:10.745Z,12.60
2018-03-17T20:59:38.294Z,11.70
2018-03-17T21:02:05.843Z,11.57
2018-03-17T21:04:33.336Z,10.70
2018-03-17T21:07:00.853Z,10.43
2018-03-17T21:09:28.345Z,10.07
2018-03-17T21:11:55.867Z,11.40
2018-03-17T21:14:24.128Z,12.80
2018-03-17T21:16:51.652Z,11.57
2018-03-17T21:19:32.208Z,11.27
2018-03-17T21:22:00.485Z,11.63
2018-03-17T21:24:27.969Z,11.20
2018-03-17T21:26:56.246Z,12.07
2018-03-17T21:29:24.520Z,11.80
2018-03-17T21:31:52.061Z,11.00
2018-03-17T21:34:19.557Z,12.17
2018-03-17T21:36:47.094Z,11.27
2018-03-17T21:39:14.583Z,12.00
2018-03-17T21:41:42.110Z,12.17
2018-03-17T21:44:09.603Z,10.83
2018-03-17T21:46:37.889Z,9.80
2018-03-17T21:49:05.389Z,11.80
2018-03-17T21:51:32.920Z,10.60
2018-03-17T21:54:00.430Z,11.70
2018-03-17T21:56:27.929Z,11.67
2018-03-17T21:58:55.455Z,11.77
2018-03-17T22:01:22.947Z,13.43
2018-03-17T22:03:50.464Z,11.97
2018-03-17T22:06:17.968Z,11.53
2018-03-17T22:08:45.487Z,10.53
2018-03-17T22:11:13.761Z,12.23
2018-03-17T22:13:41.347Z,13.50
2018-03-17T22:16:08.810Z,12.40
2018-03-17T22:18:36.329Z,12.63
2018-03-17T22:21:03.833Z,12.00
2018-03-17T22:23:31.355Z,11.30
2018-03-17T22:25:58.854Z,11.23
2018-03-17T22:28:26.402Z,12.30
2018-03-17T22:30:53.879Z,11.57
2018-03-17T22:33:21.396Z,12.77
2018-03-17T22:35:48.898Z,13.30
2018-03-17T22:38:16.412Z,13.50
2018-03-17T22:40:43.904Z,12.07
2018-03-17T22:43:11.426Z,14.40
2018-03-17T22:45:38.990Z,13.37
2018-03-17T22:48:06.514Z,13.70
2018-03-17T22:50:34.013Z,14.40
2018-03-17T22:53:02.307Z,14.67
2018-03-17T22:55:29.808Z,14.40
2018-03-17T22:57:57.324Z,14.90
2018-03-17T23:00:39.762Z,16.03
2018-03-17T23:03:08.044Z,17.70
2018-03-17T23:05:35.542Z,15.50
2018-03-17T23:08:03.060Z,15.23
2018-03-17T23:10:30.557Z,16.40
2018-03-17T23:12:58.839Z,16.80
2018-03-17T23:15:26.371Z,17.20
2018-03-17T23:17:53.877Z,19.20
2018-03-17T23:20:21.380Z,19.63
2018-03-17T23:22:48.891Z,20.73
2018-03-17T23:25:16.389Z,20.93
2018-03-17T23:27:43.900Z,16.93
2018-03-17T23:30:11.405Z,18.77
2018-03-17T23:32:38.911Z,20.20
2018-03-17T23:35:07.178Z,19.53
2018-03-17T23:37:34.696Z,21.07
2018-03-17T23:40:02.199Z,22.03
2018-03-17T23:42:29.716Z,23.00
2018-03-17T23:44:57.980Z,21.67
2018-03-17T23:47:25.495Z,19.50
2018-03-17T23:49:53.002Z,18.80
2018-03-17T23:52:20.528Z,22.10
2018-03-17T23:54:48.043Z,20.63
2018-03-17T23:57:15.569Z,19.73
2018-03-17T23:59:43.077Z,21.00
